createdAt,value
2018-04-08T00:02:21.023Z,12.90
2018-04-08T00:04:48.756Z,12.80
2018-04-08T00:07:17.086Z,12.70
2018-04-08T00:09:44.603Z,12.70
2018-04-08T00:12:12.090Z,12.70
2018-04-08T00:14:39.671Z,12.70
2018-04-08T00:17:07.151Z,12.70
2018-04-08T00:19:34.662Z,12.70
2018-04-08T00:22:02.136Z,12.70
2018-04-08T00:24:29.732Z,12.70
2018-04-08T00:26:57.254Z,12.70
2018-04-08T00:29:24.716Z,12.70
2018-04-08T00:31:52.190Z,12.70
2018-04-08T00:36:51.489Z,12.70
2018-04-08T00:39:19.000Z,12.60
2018-04-08T00:41:46.579Z,12.50
2018-04-08T00:44:14.091Z,12.50
2018-04-08T00:46:41.596Z,12.40
2018-04-08T00:49:09.107Z,12.40
2018-04-08T00:51:36.632Z,12.40
2018-04-08T00:54:16.079Z,12.20
2018-04-08T00:56:43.556Z,12.20
2018-04-08T00:59:11.827Z,12.10
2018-04-08T01:01:39.548Z,12.10
2018-04-08T01:04:07.059Z,12.10
2018-04-08T01:06:35.303Z,12.10
2018-04-08T01:09:02.793Z,12.00
2018-04-08T01:11:31.036Z,12.00
2018-04-08T01:13:58.604Z,12.00
2018-04-08T01:16:26.051Z,12.00
2018-04-08T01:18:53.534Z,12.00
2018-04-08T01:21:21.170Z,12.10
2018-04-08T01:23:48.708Z,12.10
2018-04-08T01:26:16.268Z,12.10
2018-04-08T01:28:43.820Z,12.10
2018-04-08T01:31:11.424Z,12.00
2018-04-08T01:33:38.905Z,12.10
2018-04-08T01:36:06.460Z,12.00
2018-04-08T01:38:34.779Z,12.00
2018-04-08T01:41:02.352Z,12.00
2018-04-08T01:43:29.867Z,12.00
2018-04-08T01:45:57.403Z,12.10
2018-04-08T01:48:24.869Z,12.10
2018-04-08T01:50:53.500Z,12.10
2018-04-08T01:53:21.576Z,12.00
2018-04-08T01:55:49.091Z,12.00
2018-04-08T01:58:16.580Z,12.00
2018-04-08T02:00:44.068Z,12.00
2018-04-08T02:03:11.529Z,12.10
2018-04-08T02:05:40.569Z,12.10
2018-04-08T02:08:08.052Z,12.00
2018-04-08T02:10:36.079Z,12.00
2018-04-08T02:13:03.566Z,12.00
2018-04-08T02:15:31.060Z,12.00
2018-04-08T02:17:58.562Z,12.00
2018-04-08T02:20:26.035Z,12.00
2018-04-08T02:22:53.520Z,12.10
2018-04-08T02:25:21.026Z,12.10
2018-04-08T02:27:48.512Z,12.10
2018-04-08T02:30:16.052Z,12.10
2018-04-08T02:32:43.605Z,12.00
2018-04-08T02:35:11.268Z,12.10
2018-04-08T02:37:38.820Z,12.10
2018-04-08T02:40:06.297Z,12.10
2018-04-08T02:42:33.762Z,12.10
2018-04-08T02:45:01.295Z,12.10
2018-04-08T02:47:29.547Z,12.10
2018-04-08T02:49:57.551Z,12.10
2018-04-08T02:52:25.071Z,12.00
2018-04-08T02:54:52.628Z,12.00
2018-04-08T02:57:20.140Z,11.90
2018-04-08T02:59:48.411Z,11.90
2018-04-08T03:02:15.881Z,11.80
2018-04-08T03:04:43.373Z,11.80
2018-04-08T03:07:10.938Z,11.80
2018-04-08T03:09:38.423Z,11.80
2018-04-08T03:12:05.997Z,11.80
2018-04-08T03:14:33.500Z,11.80
2018-04-08T03:17:01.829Z,11.80
2018-04-08T03:19:29.275Z,11.70
2018-04-08T03:21:56.763Z,11.80
2018-04-08T03:24:24.252Z,11.80
2018-04-08T03:26:51.747Z,11.70
2018-04-08T03:29:19.216Z,11.70
2018-04-08T03:31:46.750Z,11.60
2018-04-08T03:34:14.241Z,11.60
2018-04-08T03:36:41.905Z,11.60
2018-04-08T03:39:09.349Z,11.50
2018-04-08T03:41:36.838Z,11.50
2018-04-08T03:44:05.808Z,11.50
2018-04-08T03:46:38.268Z,11.50
2018-04-08T03:49:05.827Z,11.50
2018-04-08T03:51:33.358Z,11.50
2018-04-08T03:54:00.839Z,11.50
2018-04-08T03:56:28.335Z,11.40
2018-04-08T03:58:55.855Z,11.50
2018-04-08T04:01:23.369Z,11.40
2018-04-08T04:03:50.860Z,11.40
2018-04-08T04:06:18.348Z,11.30
2018-04-08T04:08:45.858Z,11.30
2018-04-08T04:11:13.351Z,11.30
2018-04-08T04:13:40.861Z,11.30
2018-04-08T04:16:08.319Z,11.20
2018-04-08T04:18:47.877Z,11.20
2018-04-08T04:21:27.234Z,11.10
2018-04-08T04:24:06.395Z,11.10
2018-04-08T04:26:34.708Z,11.00
2018-04-08T04:29:02.243Z,11.00
2018-04-08T04:31:29.696Z,11.00
2018-04-08T04:33:57.489Z,11.00
2018-04-08T04:36:24.965Z,11.00
2018-04-08T04:38:52.448Z,11.00
2018-04-08T04:41:19.969Z,11.00
2018-04-08T04:43:47.503Z,11.10
2018-04-08T04:46:15.010Z,11.10
2018-04-08T04:48:42.484Z,11.10
2018-04-08T04:51:10.798Z,11.10
2018-04-08T04:53:38.296Z,11.10
2018-04-08T04:56:05.828Z,11.10
2018-04-08T04:58:33.368Z,11.10
2018-04-08T05:01:00.905Z,11.10
2018-04-08T05:03:29.160Z,11.10
2018-04-08T05:05:56.680Z,11.10
2018-04-08T05:08:24.175Z,11.10
2018-04-08T05:10:51.696Z,11.20
2018-04-08T05:13:19.212Z,11.20
2018-04-08T05:15:47.595Z,11.30
2018-04-08T05:18:15.144Z,11.30
2018-04-08T05:20:42.695Z,11.30
2018-04-08T05:23:10.990Z,11.30
2018-04-08T05:25:38.450Z,11.30
2018-04-08T05:28:05.942Z,11.30
2018-04-08T05:30:33.460Z,11.30
2018-04-08T05:33:01.710Z,11.30
2018-04-08T05:35:29.181Z,11.30
2018-04-08T05:37:56.656Z,11.30
2018-04-08T05:40:24.143Z,11.30
2018-04-08T05:42:52.405Z,11.30
2018-04-08T05:45:19.856Z,11.20
2018-04-08T05:47:47.334Z,11.30
2018-04-08T05:50:14.824Z,11.30
2018-04-08T05:52:42.335Z,11.30
2018-04-08T05:55:09.804Z,11.40
2018-04-08T05:57:37.306Z,11.40
2018-04-08T06:00:05.531Z,11.50
2018-04-08T06:02:33.045Z,11.50
2018-04-08T06:05:00.532Z,11.60
2018-04-08T06:07:28.060Z,11.70
2018-04-08T06:09:56.146Z,11.80
2018-04-08T06:12:23.657Z,11.90
2018-04-08T06:14:51.123Z,12.00
2018-04-08T06:17:20.096Z,12.20
2018-04-08T06:19:47.621Z,12.20
2018-04-08T06:22:15.106Z,12.30
2018-04-08T06:24:43.247Z,12.40
2018-04-08T06:27:10.792Z,12.50
2018-04-08T06:29:38.289Z,12.60
2018-04-08T06:32:05.752Z,12.60
2018-04-08T06:34:33.280Z,12.60
2018-04-08T06:37:00.879Z,12.60
2018-04-08T06:39:28.388Z,12.70
2018-04-08T06:41:55.908Z,12.70
2018-04-08T06:44:23.443Z,12.80
2018-04-08T06:46:50.924Z,12.80
2018-04-08T06:49:18.476Z,12.90
2018-04-08T06:51:45.980Z,12.90
2018-04-08T06:54:13.443Z,12.90
2018-04-08T06:56:40.999Z,12.90
2018-04-08T06:59:08.536Z,13.00
2018-04-08T07:01:36.016Z,13.00
2018-04-08T07:04:03.504Z,13.10
2018-04-08T07:06:31.011Z,13.10
2018-04-08T07:08:58.484Z,13.20
2018-04-08T07:11:26.558Z,13.20
2018-04-08T07:13:54.015Z,13.30
2018-04-08T07:16:21.512Z,13.40
2018-04-08T07:18:49.644Z,13.40
2018-04-08T07:21:17.217Z,13.50
2018-04-08T07:23:44.766Z,13.50
2018-04-08T07:26:12.621Z,13.60
2018-04-08T07:28:40.155Z,13.60
2018-04-08T07:31:07.688Z,13.70
2018-04-08T07:33:35.221Z,13.70
2018-04-08T07:36:02.777Z,13.90
2018-04-08T07:38:30.273Z,13.90
2018-04-08T07:40:57.818Z,14.10
2018-04-08T07:43:26.122Z,14.10
2018-04-08T07:45:53.657Z,14.20
2018-04-08T07:48:21.212Z,14.30
2018-04-08T07:50:48.746Z,14.30
2018-04-08T07:53:16.247Z,14.40
2018-04-08T07:55:43.828Z,14.40
2018-04-08T07:58:11.275Z,14.50
2018-04-08T08:00:38.944Z,14.60
2018-04-08T08:03:06.532Z,14.60
2018-04-08T08:05:34.051Z,14.60
2018-04-08T08:08:01.631Z,14.60
2018-04-08T08:10:29.163Z,14.60
2018-04-08T08:12:56.684Z,14.70
2018-04-08T08:15:24.144Z,14.70
2018-04-08T08:17:51.680Z,14.70
2018-04-08T08:20:19.184Z,14.80
2018-04-08T08:22:46.671Z,14.90
2018-04-08T08:25:14.128Z,14.90
2018-04-08T08:27:46.253Z,15.00
2018-04-08T08:30:14.697Z,15.10
2018-04-08T08:32:42.153Z,15.10
2018-04-08T08:35:09.616Z,15.30
2018-04-08T08:37:37.232Z,15.30
2018-04-08T08:40:04.728Z,15.40
2018-04-08T08:42:32.240Z,15.50
2018-04-08T08:44:59.707Z,15.50
2018-04-08T08:47:27.177Z,15.60
2018-04-08T08:49:55.391Z,15.70
2018-04-08T08:52:22.873Z,15.70
2018-04-08T08:54:50.454Z,15.80
2018-04-08T08:57:17.881Z,15.90
2018-04-08T08:59:45.351Z,16.00
2018-04-08T09:02:12.856Z,16.00
2018-04-08T09:04:40.422Z,16.10
2018-04-08T09:07:07.867Z,16.10
2018-04-08T09:09:35.406Z,16.20
2018-04-08T09:12:02.858Z,16.20
2018-04-08T09:14:30.328Z,16.20
2018-04-08T09:16:57.852Z,16.30
2018-04-08T09:19:30.882Z,16.40
2018-04-08T09:25:08.988Z,16.50
2018-04-08T09:27:36.482Z,16.60
2018-04-08T09:30:03.992Z,16.70
2018-04-08T09:32:31.469Z,16.80
2018-04-08T09:34:58.947Z,16.90
2018-04-08T09:37:26.414Z,17.00
2018-04-08T09:39:54.642Z,17.20
2018-04-08T09:42:22.127Z,17.20
2018-04-08T09:44:49.665Z,17.30
2018-04-08T09:47:17.144Z,17.30
2018-04-08T09:49:44.624Z,17.40
2018-04-08T09:52:12.152Z,17.50
2018-04-08T09:54:39.698Z,17.50
2018-04-08T09:57:07.173Z,17.60
2018-04-08T09:59:34.721Z,17.60
2018-04-08T10:05:13.356Z,17.90
2018-04-08T10:07:40.809Z,18.00
2018-04-08T10:10:08.372Z,18.00
2018-04-08T10:12:35.899Z,18.10
2018-04-08T10:15:03.591Z,18.20
2018-04-08T10:17:31.093Z,18.30
2018-04-08T10:19:58.668Z,18.30
2018-04-08T10:22:27.018Z,18.50
2018-04-08T10:24:55.288Z,18.60
2018-04-08T10:27:22.769Z,18.60
2018-04-08T10:29:50.265Z,18.70
2018-04-08T10:32:17.755Z,18.70
2018-04-08T10:34:46.084Z,18.80
2018-04-08T10:37:13.548Z,18.70
2018-04-08T10:39:41.347Z,18.90
2018-04-08T10:42:09.864Z,19.00
2018-04-08T10:44:45.736Z,19.10
2018-04-08T10:47:13.237Z,19.20
2018-04-08T10:49:41.544Z,19.20
2018-04-08T10:52:09.071Z,19.20
2018-04-08T10:54:36.699Z,19.30
2018-04-08T10:57:04.215Z,19.40
2018-04-08T10:59:31.748Z,19.30
2018-04-08T11:01:59.258Z,19.30
2018-04-08T11:04:25.487Z,19.40
2018-04-08T11:06:51.835Z,19.50
2018-04-08T11:09:18.138Z,19.60
2018-04-08T11:11:53.362Z,19.60
2018-04-08T11:14:24.933Z,19.70
2018-04-08T11:16:51.133Z,19.80
2018-04-08T11:19:17.354Z,19.80
2018-04-08T11:21:44.357Z,19.80
2018-04-08T11:24:11.038Z,19.90
2018-04-08T11:26:37.260Z,19.90
2018-04-08T11:29:03.525Z,20.00
2018-04-08T11:31:29.747Z,20.10
2018-04-08T11:33:55.933Z,20.20
2018-04-08T11:36:22.120Z,20.40
2018-04-08T11:38:48.328Z,20.40
2018-04-08T11:41:14.498Z,20.50
2018-04-08T11:43:40.608Z,20.60
2018-04-08T11:46:07.248Z,20.60
2018-04-08T11:48:33.416Z,20.80
2018-04-08T11:51:00.253Z,20.70
2018-04-08T11:53:26.473Z,20.60
2018-04-08T11:55:52.733Z,20.70
2018-04-08T11:58:19.758Z,21.00
2018-04-08T12:00:46.024Z,21.00
2018-04-08T12:03:12.223Z,21.10
2018-04-08T12:05:38.431Z,21.20
2018-04-08T12:08:04.593Z,21.20
2018-04-08T12:10:30.775Z,21.20
2018-04-08T12:12:56.929Z,21.10
2018-04-08T12:15:23.099Z,21.10
2018-04-08T12:17:49.270Z,21.00
2018-04-08T12:20:15.424Z,21.20
2018-04-08T12:22:42.400Z,21.30
2018-04-08T12:25:09.324Z,21.40
2018-04-08T12:27:35.530Z,21.40
2018-04-08T12:30:01.764Z,21.50
2018-04-08T12:32:28.686Z,21.60
2018-04-08T12:34:54.846Z,21.60
2018-04-08T12:37:21.057Z,21.60
2018-04-08T12:39:47.376Z,21.60
2018-04-08T12:42:13.504Z,21.70
2018-04-08T12:44:40.342Z,21.70
2018-04-08T12:47:06.572Z,21.90
2018-04-08T12:49:32.792Z,22.10
2018-04-08T12:51:58.998Z,22.00
2018-04-08T12:54:25.890Z,22.00
2018-04-08T12:56:52.836Z,22.10
2018-04-08T12:59:19.254Z,22.10
2018-04-08T13:01:45.454Z,22.10
2018-04-08T13:04:11.732Z,22.30
2018-04-08T13:06:38.088Z,22.40
2018-04-08T13:09:04.533Z,22.40
2018-04-08T13:11:30.724Z,22.40
2018-04-08T13:13:57.061Z,22.50
2018-04-08T13:16:23.411Z,22.50
2018-04-08T13:18:49.809Z,22.60
2018-04-08T13:21:16.114Z,22.60
2018-04-08T13:23:42.562Z,22.70
2018-04-08T13:26:10.660Z,22.80
2018-04-08T13:28:36.894Z,22.80
2018-04-08T13:31:03.220Z,22.90
2018-04-08T13:33:29.510Z,22.90
2018-04-08T13:35:55.800Z,22.90
2018-04-08T13:38:22.052Z,23.00
2018-04-08T13:40:48.293Z,23.20
2018-04-08T13:43:15.495Z,23.40
2018-04-08T13:45:41.834Z,23.40
2018-04-08T13:48:08.180Z,23.40
2018-04-08T13:50:34.489Z,23.40
2018-04-08T13:53:00.829Z,23.40
2018-04-08T13:55:27.182Z,23.40
2018-04-08T13:57:53.538Z,23.40
2018-04-08T14:00:22.008Z,23.50
2018-04-08T14:02:49.280Z,23.50
2018-04-08T14:05:17.041Z,23.40
2018-04-08T14:07:44.700Z,23.40
2018-04-08T14:10:11.132Z,23.40
2018-04-08T14:12:38.016Z,23.40
2018-04-08T14:15:05.023Z,23.40
2018-04-08T14:17:31.716Z,23.40
2018-04-08T14:20:16.921Z,23.50
2018-04-08T14:22:46.916Z,23.60
2018-04-08T14:25:27.194Z,23.40
2018-04-08T14:28:04.598Z,23.40
2018-04-08T14:30:32.020Z,23.60
2018-04-08T14:33:00.210Z,23.70
2018-04-08T14:35:27.165Z,23.60
2018-04-08T14:37:54.871Z,23.70
2018-04-08T14:40:21.390Z,23.60
2018-04-08T14:42:48.128Z,23.60
2018-04-08T14:45:14.813Z,23.70
2018-04-08T14:47:42.845Z,23.80
2018-04-08T14:50:10.972Z,23.70
2018-04-08T14:52:37.384Z,23.70
2018-04-08T14:55:04.012Z,23.70
2018-04-08T14:57:30.438Z,23.60
2018-04-08T14:59:58.212Z,23.70
2018-04-08T15:02:24.673Z,23.80
2018-04-08T15:04:51.054Z,23.70
2018-04-08T15:07:26.537Z,23.70
2018-04-08T15:09:53.022Z,23.70
2018-04-08T15:12:20.499Z,23.70
2018-04-08T15:14:46.849Z,23.80
2018-04-08T15:19:51.936Z,23.90
2018-04-08T15:22:18.552Z,23.90
2018-04-08T15:24:56.019Z,24.00
2018-04-08T15:27:22.596Z,23.90
2018-04-08T15:29:49.300Z,24.00
2018-04-08T15:32:16.210Z,23.90
2018-04-08T15:34:42.979Z,23.80
2018-04-08T15:37:10.594Z,23.80
2018-04-08T15:40:13.681Z,23.90
2018-04-08T15:42:40.049Z,23.80
2018-04-08T15:45:06.572Z,23.90
2018-04-08T15:47:33.420Z,23.90
2018-04-08T15:50:00.921Z,23.90
2018-04-08T15:52:28.060Z,23.90
2018-04-08T15:54:55.046Z,23.90
2018-04-08T15:57:21.324Z,23.90
2018-04-08T15:59:47.776Z,23.90
2018-04-08T16:02:14.189Z,23.90
2018-04-08T16:04:56.124Z,23.90
2018-04-08T16:07:22.626Z,24.00
2018-04-08T16:09:48.894Z,23.80
2018-04-08T16:15:46.462Z,23.80
2018-04-08T16:18:14.781Z,23.70
2018-04-08T16:20:41.516Z,23.70
2018-04-08T16:23:07.813Z,23.60
2018-04-08T16:25:34.233Z,23.50
2018-04-08T16:28:00.415Z,23.50
2018-04-08T16:30:29.327Z,23.50
2018-04-08T16:32:56.727Z,23.50
2018-04-08T16:35:23.120Z,23.20
2018-04-08T16:37:54.702Z,23.30
2018-04-08T16:40:21.383Z,23.20
2018-04-08T16:42:47.596Z,23.20
2018-04-08T16:45:13.896Z,23.00
2018-04-08T16:47:41.084Z,23.10
2018-04-08T16:50:08.222Z,22.90
2018-04-08T16:52:34.506Z,22.80
2018-04-08T16:55:02.036Z,22.80
2018-04-08T16:57:41.719Z,22.60
2018-04-08T17:03:34.929Z,22.50
2018-04-08T17:06:07.773Z,22.40
2018-04-08T17:08:42.121Z,22.30
2018-04-08T17:11:10.785Z,22.20
2018-04-08T17:13:36.998Z,22.00
2018-04-08T17:16:03.367Z,21.90
2018-04-08T17:18:30.581Z,21.80
2018-04-08T17:21:13.858Z,21.80
2018-04-08T17:23:40.193Z,21.70
2018-04-08T17:26:06.572Z,21.60
2018-04-08T17:28:32.880Z,21.60
2018-04-08T17:31:02.327Z,21.40
2018-04-08T17:33:28.839Z,21.30
2018-04-08T17:35:55.130Z,21.30
2018-04-08T17:38:40.929Z,21.20
2018-04-08T17:41:07.407Z,21.00
2018-04-08T17:43:35.967Z,20.90
2018-04-08T17:46:02.232Z,20.80
2018-04-08T17:48:28.603Z,20.70
2018-04-08T17:50:54.871Z,20.60
2018-04-08T17:53:21.020Z,20.50
2018-04-08T17:55:47.330Z,20.40
2018-04-08T17:58:25.889Z,20.30
2018-04-08T18:00:58.107Z,20.20
2018-04-08T18:03:24.298Z,20.20
2018-04-08T18:05:50.582Z,20.10
2018-04-08T18:08:16.862Z,20.00
2018-04-08T18:10:43.180Z,19.90
2018-04-08T18:13:45.205Z,19.80
2018-04-08T18:16:12.441Z,19.70
2018-04-08T18:18:39.353Z,19.50
2018-04-08T18:21:05.525Z,19.50
2018-04-08T18:23:32.861Z,19.30
2018-04-08T18:25:59.041Z,19.30
2018-04-08T18:28:26.354Z,19.20
2018-04-08T18:30:53.233Z,19.10
2018-04-08T18:33:19.440Z,19.10
2018-04-08T18:35:46.362Z,18.90
2018-04-08T18:38:12.560Z,18.90
2018-04-08T18:40:38.700Z,18.70
2018-04-08T18:43:04.854Z,18.70
2018-04-08T18:45:31.131Z,18.60
2018-04-08T18:47:57.251Z,18.50
2018-04-08T18:50:23.359Z,18.40
2018-04-08T18:52:49.659Z,18.30
2018-04-08T18:55:15.871Z,18.20
2018-04-08T18:57:42.069Z,18.20
2018-04-08T19:00:08.367Z,18.20
2018-04-08T19:02:34.668Z,18.10
2018-04-08T19:05:00.810Z,18.10
2018-04-08T19:07:26.957Z,18.00
2018-04-08T19:09:55.346Z,18.00
2018-04-08T19:12:21.707Z,17.90
2018-04-08T19:14:53.906Z,17.90
2018-04-08T19:17:26.243Z,17.80
2018-04-08T19:19:52.431Z,17.70
2018-04-08T19:22:18.587Z,17.70
2018-04-08T19:24:44.866Z,17.70
2018-04-08T19:27:17.745Z,17.70
2018-04-08T19:29:43.940Z,17.70
2018-04-08T19:32:10.118Z,17.80
2018-04-08T19:34:37.013Z,17.70
2018-04-08T19:37:03.736Z,17.70
2018-04-08T19:39:30.029Z,17.60
2018-04-08T19:41:56.651Z,17.50
2018-04-08T19:44:23.411Z,17.60
2018-04-08T19:49:59.666Z,17.40
2018-04-08T19:52:25.805Z,17.40
2018-04-08T19:54:52.033Z,17.10
2018-04-08T19:57:18.294Z,17.10
2018-04-08T19:59:44.485Z,17.00
2018-04-08T20:02:11.645Z,17.00
2018-04-08T20:04:37.867Z,16.90
2018-04-08T20:07:04.167Z,16.80
2018-04-08T20:09:30.992Z,16.80
2018-04-08T20:11:57.184Z,16.70
2018-04-08T20:14:23.351Z,16.70
2018-04-08T20:16:49.552Z,16.60
2018-04-08T20:19:16.541Z,16.60
2018-04-08T20:21:42.708Z,16.60
2018-04-08T20:24:08.989Z,16.50
2018-04-08T20:26:35.233Z,16.40
2018-04-08T20:29:01.419Z,16.40
2018-04-08T20:31:27.628Z,16.30
2018-04-08T20:33:53.835Z,16.30
2018-04-08T20:36:20.147Z,16.30
2018-04-08T20:38:46.316Z,16.30
2018-04-08T20:41:12.578Z,16.20
2018-04-08T20:43:39.483Z,16.20
2018-04-08T20:46:05.743Z,16.20
2018-04-08T20:48:31.988Z,16.20
2018-04-08T20:50:58.223Z,16.10
2018-04-08T20:53:24.403Z,16.10
2018-04-08T20:55:50.576Z,16.10
2018-04-08T20:58:16.781Z,16.00
2018-04-08T21:00:42.964Z,16.00
2018-04-08T21:03:09.147Z,16.00
2018-04-08T21:05:35.279Z,16.00
2018-04-08T21:08:02.401Z,15.90
2018-04-08T21:10:28.663Z,15.90
2018-04-08T21:12:54.808Z,15.90
2018-04-08T21:15:21.135Z,15.80
2018-04-08T21:17:47.270Z,15.70
2018-04-08T21:20:13.484Z,15.70
2018-04-08T21:22:39.729Z,15.60
2018-04-08T21:25:05.915Z,15.40
2018-04-08T21:27:32.070Z,15.40
2018-04-08T21:29:58.266Z,15.50
2018-04-08T21:32:24.461Z,15.50
2018-04-08T21:34:50.691Z,15.60
2018-04-08T21:37:16.949Z,15.60
2018-04-08T21:39:43.297Z,15.50
2018-04-08T21:42:09.471Z,15.40
2018-04-08T21:44:35.677Z,15.40
2018-04-08T21:47:02.756Z,15.30
2018-04-08T21:49:28.935Z,15.20
2018-04-08T21:51:55.243Z,15.10
2018-04-08T21:54:21.424Z,15.10
2018-04-08T21:56:47.548Z,15.00
2018-04-08T21:59:13.673Z,14.90
2018-04-08T22:01:39.816Z,14.90
2018-04-08T22:04:06.706Z,14.90
2018-04-08T22:06:32.895Z,14.90
2018-04-08T22:08:59.091Z,14.80
2018-04-08T22:11:25.227Z,14.70
2018-04-08T22:13:51.409Z,14.70
2018-04-08T22:16:17.640Z,14.70
2018-04-08T22:18:44.942Z,14.70
2018-04-08T22:21:11.123Z,14.60
2018-04-08T22:23:37.275Z,14.70
2018-04-08T22:26:03.383Z,14.60
2018-04-08T22:28:29.553Z,14.70
2018-04-08T22:30:55.704Z,14.70
2018-04-08T22:33:22.059Z,14.70
2018-04-08T22:35:48.698Z,14.60
2018-04-08T22:38:14.835Z,14.60
2018-04-08T22:40:40.984Z,14.60
2018-04-08T22:43:12.791Z,14.60
2018-04-08T22:45:39.960Z,14.60
2018-04-08T22:48:06.153Z,14.50
2018-04-08T22:50:32.318Z,14.50
2018-04-08T22:52:58.474Z,14.50
2018-04-08T22:55:25.502Z,14.40
2018-04-08T22:57:52.512Z,14.50
2018-04-08T23:00:24.932Z,14.40
2018-04-08T23:02:51.087Z,14.40
2018-04-08T23:05:18.258Z,14.30
2018-04-08T23:07:44.416Z,14.30
2018-04-08T23:10:10.674Z,14.30
2018-04-08T23:12:37.003Z,14.30
2018-04-08T23:15:03.181Z,14.30
2018-04-08T23:17:29.320Z,14.30
2018-04-08T23:19:55.520Z,14.30
2018-04-08T23:22:21.681Z,14.20
2018-04-08T23:24:48.017Z,14.10
2018-04-08T23:27:14.255Z,14.10
2018-04-08T23:29:41.168Z,14.10
2018-04-08T23:32:09.427Z,14.10
2018-04-08T23:34:35.694Z,14.10
2018-04-08T23:37:02.572Z,14.00
2018-04-08T23:39:29.439Z,14.00
2018-04-08T23:41:55.608Z,14.00
2018-04-08T23:44:22.575Z,14.00
2018-04-08T23:46:48.784Z,14.00
2018-04-08T23:49:14.917Z,14.00
2018-04-08T23:51:41.127Z,14.00
2018-04-08T23:54:08.111Z,14.00
2018-04-08T23:56:34.367Z,14.00
2018-04-08T23:59:01.112Z,13.90
